KBEH

Southwest Michigan Regional Airport

Benton Harbor, Michigan, USA
METAR KBEH 190653Z AUTO 00000KT 10SM CLR 14/13 A3005 RMK AO2 SLP174 T01440128
Observed Flight Rules
Jul-19 @ 06:53 UTC (51 minutes ago) Visual Flight Rules
Visibility Clouds
10 miles
  • Clear skies
Temperatures Readings
Current 14°C / 57°F
Dewpoint 13°C / 55°F
Humidity 94%
Altimeter 30.05" Hg
Pressure 1017.4 hPa
Elevation 191
METAR KBEH 190653Z AUTO 00000KT 10SM CLR 14/13 A3005 RMK AO2 SLP174 T01440128
Observed Flight Rules
Jul-19 @ 06:53 UTC
(51 minutes ago)
VFR
Clouds
  • Clear skies
Temperature Dewpoint
14°C / 57°F 13°C / 55°F
Humidity Altimeter Pressure
94% 30.05" Hg 1017.4 hPa